Time;durP1;ratioP1;P1;durP2;ratioP2;P2;SDS_P1;SDS_P2;PMS_P1;PMS_P2;Temp;Humidity;BMP_temperature;BMP_pressure;BME280_temperature;BME280_humidity;BME280_pressure;Samples;Min_cycle;Max_cycle;Signal;HPM_P1;HPM_P2
2023/06/24 00:00:06;;;;;;;11.40;5.63;;;18.20;95.50;;;;;;5033071;28;20056;-73
2023/06/24 00:02:36;;;;;;;7.85;5.00;;;18.10;95.70;;;;;;5032431;28;20077;-73
2023/06/24 00:05:03;;;;;;;7.05;5.38;;;18.10;95.90;;;;;;5031814;28;20453;-73
2023/06/24 00:07:29;;;;;;;7.45;5.10;;;18.10;96.00;;;;;;5031725;28;20103;-73
2023/06/24 00:09:55;;;;;;;5.95;4.70;;;18.00;96.10;;;;;;5031787;28;20045;-73
2023/06/24 00:12:20;;;;;;;7.50;5.07;;;18.00;96.30;;;;;;5031747;28;20047;-73
2023/06/24 00:14:47;;;;;;;5.95;5.28;;;18.10;96.30;;;;;;5032024;28;20059;-73
2023/06/24 00:17:13;;;;;;;9.98;5.30;;;18.00;96.40;;;;;;5031868;28;20052;-73
2023/06/24 00:19:39;;;;;;;5.60;4.88;;;18.00;96.50;;;;;;5031661;28;20414;-73
2023/06/24 00:22:05;;;;;;;6.78;5.35;;;17.90;96.80;;;;;;5031669;28;20033;-73
2023/06/24 00:24:30;;;;;;;6.85;5.00;;;17.90;97.10;;;;;;5031637;28;20041;-73
2023/06/24 00:26:56;;;;;;;6.55;5.22;;;17.80;97.10;;;;;;5031555;28;20034;-73
2023/06/24 00:29:22;;;;;;;6.75;5.20;;;17.70;97.40;;;;;;5031621;28;20045;-73
2023/06/24 00:31:47;;;;;;;7.93;5.65;;;17.70;97.60;;;;;;5031589;28;20040;-73
2023/06/24 00:34:14;;;;;;;8.10;5.50;;;17.70;97.80;;;;;;5015128;28;20038;-73
2023/06/24 00:36:39;;;;;;;9.90;5.43;;;17.60;98.00;;;;;;5031455;28;20041;-73
2023/06/24 00:39:06;;;;;;;6.65;5.25;;;17.60;98.20;;;;;;5015003;28;20044;-73
2023/06/24 00:41:33;;;;;;;8.60;5.40;;;17.60;98.30;;;;;;5015016;28;20041;-73
2023/06/24 00:43:59;;;;;;;8.73;5.88;;;17.60;98.30;;;;;;5031482;28;20069;-73
2023/06/24 00:46:25;;;;;;;8.05;5.68;;;17.60;98.40;;;;;;5034761;28;20037;-73
2023/06/24 00:48:53;;;;;;;8.80;5.65;;;17.60;98.50;;;;;;5035471;28;20536;-73
2023/06/24 00:51:21;;;;;;;7.65;5.70;;;17.50;98.60;;;;;;5035152;28;20494;-73
2023/06/24 00:53:47;;;;;;;9.25;5.63;;;17.40;98.70;;;;;;5035143;28;20091;-73
2023/06/24 00:56:18;;;;;;;6.28;5.53;;;17.40;98.90;;;;;;5035267;28;20449;-73
2023/06/24 00:58:45;;;;;;;6.50;5.28;;;17.30;99.00;;;;;;5035094;28;20120;-73
2023/06/24 01:01:10;;;;;;;8.82;5.57;;;17.30;99.10;;;;;;5035008;28;20116;-73
2023/06/24 01:03:38;;;;;;;8.02;5.93;;;17.20;99.10;;;;;;5035288;28;20371;-73
2023/06/24 01:06:05;;;;;;;6.15;5.53;;;17.20;99.30;;;;;;5034880;28;20128;-73
2023/06/24 01:08:31;;;;;;;7.60;5.57;;;17.20;99.40;;;;;;5034878;28;20120;-73
2023/06/24 01:10:56;;;;;;;9.05;6.30;;;17.20;99.50;;;;;;5034830;28;20076;-73
2023/06/24 01:13:22;;;;;;;6.63;5.85;;;17.20;99.40;;;;;;5034800;28;20128;-73
2023/06/24 01:15:48;;;;;;;6.60;5.88;;;17.10;99.50;;;;;;5034666;28;20099;-73
2023/06/24 01:18:34;;;;;;;6.07;5.05;;;17.10;99.60;;;;;;5034717;28;20045;-73
2023/06/24 01:21:14;;;;;;;5.63;4.70;;;17.10;98.80;;;;;;5034585;28;20041;-73
2023/06/24 01:23:52;;;;;;;7.95;5.05;;;16.90;99.10;;;;;;5034688;28;20041;-73
2023/06/24 01:27:02;;;;;;;6.07;5.50;;;16.90;99.40;;;;;;5034776;28;20049;-73
2023/06/24 01:29:36;;;;;;;7.65;5.50;;;16.80;99.80;;;;;;5034486;28;20498;-73
2023/06/24 01:32:15;;;;;;;7.40;5.60;;;16.70;99.90;;;;;;5034516;28;20074;-73
2023/06/24 01:34:51;;;;;;;6.80;5.15;;;16.60;99.90;;;;;;5034420;28;20052;-73
2023/06/24 01:37:20;;;;;;;6.05;5.10;;;16.50;99.90;;;;;;5034280;28;20056;-73
2023/06/24 01:40:17;;;;;;;7.93;5.80;;;16.50;99.90;;;;;;5034219;28;20053;-73
2023/06/24 01:42:45;;;;;;;7.50;5.95;;;16.50;99.90;;;;;;5018006;28;20046;-73
2023/06/24 01:45:16;;;;;;;6.72;6.03;;;16.40;99.90;;;;;;5034104;28;20045;-73
2023/06/24 01:47:45;;;;;;;7.03;5.82;;;16.40;99.90;;;;;;5034192;28;20494;-73
2023/06/24 01:50:12;;;;;;;9.00;6.47;;;16.30;99.90;;;;;;5034355;28;20528;-73
2023/06/24 01:52:42;;;;;;;6.68;5.47;;;16.40;99.90;;;;;;5034062;28;20588;-73
2023/06/24 01:55:10;;;;;;;7.85;6.05;;;16.40;99.90;;;;;;5034084;28;20038;-73
2023/06/24 01:57:39;;;;;;;7.30;5.93;;;16.40;99.90;;;;;;5033897;28;20045;-73
2023/06/24 02:00:07;;;;;;;8.35;6.30;;;16.30;99.90;;;;;;5017298;28;20409;-73
2023/06/24 02:02:35;;;;;;;6.82;5.85;;;16.30;99.90;;;;;;5017356;28;20073;-73
2023/06/24 02:05:02;;;;;;;7.55;5.97;;;16.20;99.90;;;;;;5033836;28;20045;-73
2023/06/24 02:07:29;;;;;;;7.47;6.03;;;16.20;99.90;;;;;;5033701;28;20077;-73
2023/06/24 02:09:57;;;;;;;8.57;6.05;;;16.20;99.90;;;;;;5033768;28;20055;-73
2023/06/24 02:12:24;;;;;;;8.10;6.45;;;16.20;99.90;;;;;;5033965;28;20529;-73
2023/06/24 02:14:51;;;;;;;6.80;5.05;;;16.30;99.90;;;;;;5033646;28;20041;-73
2023/06/24 02:17:18;;;;;;;9.00;6.57;;;16.30;99.90;;;;;;5034792;28;20444;-73
2023/06/24 02:19:44;;;;;;;10.43;6.97;;;16.40;99.90;;;;;;5033440;28;20054;-73
2023/06/24 02:22:10;;;;;;;10.38;7.40;;;16.40;99.90;;;;;;5017021;28;20045;-73
2023/06/24 02:24:41;;;;;;;10.18;7.47;;;16.40;99.90;;;;;;5033443;28;20076;-73
2023/06/24 02:27:08;;;;;;;8.55;7.68;;;16.50;99.90;;;;;;5033613;28;20102;-73
2023/06/24 02:29:35;;;;;;;9.70;7.47;;;16.50;99.90;;;;;;5033570;28;20090;-73
2023/06/24 02:32:01;;;;;;;8.48;7.50;;;16.50;99.90;;;;;;5033309;28;20041;-73
2023/06/24 02:34:28;;;;;;;11.05;8.60;;;16.60;99.90;;;;;;5033260;28;20041;-73
2023/06/24 02:36:53;;;;;;;12.07;8.23;;;16.60;99.90;;;;;;5033107;28;20383;-73
2023/06/24 02:39:19;;;;;;;10.25;8.50;;;16.60;99.90;;;;;;5016621;28;20048;-73
2023/06/24 02:41:47;;;;;;;11.27;9.20;;;16.60;99.90;;;;;;5033371;28;20029;-73
2023/06/24 02:44:13;;;;;;;10.60;8.25;;;16.60;99.90;;;;;;5033338;28;20053;-73
2023/06/24 02:46:40;;;;;;;13.35;8.55;;;16.60;99.90;;;;;;5033013;28;20416;-73
2023/06/24 02:49:08;;;;;;;15.45;8.63;;;16.60;99.90;;;;;;5032944;28;20059;-72
2023/06/24 02:51:34;;;;;;;10.52;9.15;;;16.60;99.90;;;;;;5032904;28;20440;-72
2023/06/24 02:54:01;;;;;;;12.65;9.57;;;16.50;99.90;;;;;;5032905;28;20490;-72
2023/06/24 02:56:27;;;;;;;9.95;8.77;;;16.50;99.90;;;;;;5032615;28;20037;-72
2023/06/24 02:58:54;;;;;;;11.82;9.65;;;16.40;99.90;;;;;;5033027;28;20072;-72
2023/06/24 03:01:24;;;;;;;12.77;8.85;;;16.30;99.90;;;;;;5032698;28;20042;-72
2023/06/24 03:03:54;;;;;;;11.07;8.88;;;16.30;99.90;;;;;;5033306;28;20036;-72
2023/06/24 03:06:21;;;;;;;11.90;9.10;;;16.30;99.90;;;;;;5032927;28;20044;-72
2023/06/24 03:08:47;;;;;;;10.88;9.35;;;16.40;99.90;;;;;;5032018;28;20044;-72
2023/06/24 03:11:16;;;;;;;12.27;9.60;;;16.30;99.90;;;;;;5032841;28;20124;-72
2023/06/24 03:13:42;;;;;;;11.40;10.13;;;16.30;99.90;;;;;;5032545;28;20041;-72
2023/06/24 03:16:12;;;;;;;11.68;9.95;;;16.30;99.90;;;;;;5032431;28;20037;-72
2023/06/24 03:18:41;;;;;;;11.60;9.10;;;16.30;99.90;;;;;;5032456;28;20080;-72
2023/06/24 03:21:07;;;;;;;13.30;10.40;;;16.40;99.90;;;;;;5032338;28;20095;-72
2023/06/24 03:23:33;;;;;;;10.15;8.93;;;16.40;99.90;;;;;;5032610;28;20045;-72
2023/06/24 03:25:58;;;;;;;11.30;9.23;;;16.40;99.90;;;;;;5032258;28;20547;-72
2023/06/24 03:28:24;;;;;;;14.45;9.48;;;16.40;99.90;;;;;;5032329;28;20037;-72
2023/06/24 03:30:50;;;;;;;13.90;10.23;;;16.40;99.90;;;;;;5032274;28;20076;-72
2023/06/24 03:33:16;;;;;;;10.43;9.40;;;16.40;99.90;;;;;;5032215;28;20068;-72
2023/06/24 03:35:43;;;;;;;10.50;9.30;;;16.50;99.90;;;;;;5032414;28;20049;-72
2023/06/24 03:38:08;;;;;;;10.50;9.40;;;16.50;99.90;;;;;;5032402;28;20523;-72
2023/06/24 03:40:34;;;;;;;10.02;8.65;;;16.50;99.90;;;;;;5032100;28;20041;-72
2023/06/24 03:43:00;;;;;;;11.98;9.43;;;16.50;99.90;;;;;;5032351;28;20033;-72
2023/06/24 03:45:25;;;;;;;13.07;9.38;;;16.60;99.90;;;;;;5032047;28;20390;-72
2023/06/24 03:47:51;;;;;;;11.35;9.10;;;16.70;99.90;;;;;;5032076;28;20065;-72
2023/06/24 03:50:17;;;;;;;9.82;8.57;;;16.80;99.90;;;;;;5031999;28;20080;-72
2023/06/24 03:52:44;;;;;;;14.00;9.90;;;16.80;99.90;;;;;;5031977;28;20053;-72
2023/06/24 03:55:10;;;;;;;14.27;10.63;;;16.80;99.90;;;;;;5032030;28;20049;-73
2023/06/24 03:57:36;;;;;;;11.15;10.05;;;16.80;99.90;;;;;;5032232;28;20038;-73
2023/06/24 04:00:15;;;;;;;19.08;9.35;;;16.80;99.90;;;;;;5031803;28;20402;-73
2023/06/24 04:02:41;;;;;;;13.50;9.98;;;16.80;99.90;;;;;;5031941;28;20080;-73
2023/06/24 04:05:08;;;;;;;11.27;9.65;;;16.90;99.90;;;;;;5031771;28;20080;-73
2023/06/24 04:07:35;;;;;;;13.82;10.40;;;16.90;99.90;;;;;;5032065;28;20041;-73
2023/06/24 04:10:03;;;;;;;14.00;10.07;;;16.90;99.90;;;;;;5031798;28;20079;-73
2023/06/24 04:12:29;;;;;;;12.23;9.77;;;16.90;99.90;;;;;;5031812;28;20045;-73
2023/06/24 04:14:54;;;;;;;10.90;9.65;;;16.90;99.90;;;;;;5032013;28;20041;-73
2023/06/24 04:17:20;;;;;;;15.63;10.27;;;17.00;99.90;;;;;;5031670;28;20124;-73
2023/06/24 04:19:46;;;;;;;12.55;10.05;;;17.00;99.90;;;;;;5034333;28;20072;-73
2023/06/24 04:22:11;;;;;;;12.45;9.80;;;17.10;99.90;;;;;;5036036;28;20080;-73
2023/06/24 04:24:37;;;;;;;13.90;10.07;;;17.10;99.90;;;;;;5035693;28;20383;-73
2023/06/24 04:27:03;;;;;;;10.55;9.45;;;17.10;99.90;;;;;;5035637;28;20060;-73
2023/06/24 04:29:28;;;;;;;15.18;9.93;;;17.10;99.90;;;;;;5035626;28;20044;-73
2023/06/24 04:31:54;;;;;;;14.48;9.60;;;17.10;99.90;;;;;;5035599;28;20069;-73
2023/06/24 04:34:19;;;;;;;12.15;9.63;;;17.10;99.90;;;;;;5035772;28;20041;-73
2023/06/24 04:36:45;;;;;;;13.65;10.32;;;17.20;99.90;;;;;;5035677;28;20029;-73
2023/06/24 04:39:10;;;;;;;11.57;9.57;;;17.20;99.90;;;;;;5035434;28;20556;-73
2023/06/24 04:41:36;;;;;;;12.13;10.10;;;17.20;99.90;;;;;;5035340;28;20044;-73
2023/06/24 04:44:02;;;;;;;11.57;9.65;;;17.20;99.90;;;;;;5035404;28;20049;-73
2023/06/24 04:46:27;;;;;;;11.55;10.38;;;17.30;99.90;;;;;;5035178;28;20037;-72
2023/06/24 04:48:53;;;;;;;15.82;10.32;;;17.30;99.90;;;;;;5035228;28;20041;-72
2023/06/24 04:51:18;;;;;;;12.40;9.85;;;17.40;99.90;;;;;;5035194;28;20128;-72
2023/06/24 04:53:44;;;;;;;12.25;11.05;;;17.40;99.90;;;;;;5035446;28;20068;-72
2023/06/24 04:56:10;;;;;;;14.98;10.70;;;17.40;99.90;;;;;;5018592;28;20116;-72
2023/06/24 04:58:35;;;;;;;14.27;11.05;;;17.40;99.90;;;;;;5035329;28;20091;-72
2023/06/24 05:01:01;;;;;;;14.05;10.98;;;17.50;99.90;;;;;;5034973;28;20045;-72
2023/06/24 05:03:26;;;;;;;13.85;11.40;;;17.50;99.90;;;;;;5035020;28;20044;-72
2023/06/24 05:05:52;;;;;;;13.20;11.50;;;17.60;99.90;;;;;;5034920;28;20116;-72
2023/06/24 05:08:17;;;;;;;13.73;11.20;;;17.60;99.90;;;;;;5034969;28;20039;-72
2023/06/24 05:10:43;;;;;;;12.82;11.52;;;17.70;99.90;;;;;;5035117;28;20056;-72
2023/06/24 05:13:09;;;;;;;14.00;11.25;;;17.70;99.90;;;;;;5034892;28;20546;-72
2023/06/24 05:15:34;;;;;;;15.80;11.88;;;17.70;99.90;;;;;;5034690;28;20072;-72
2023/06/24 05:18:00;;;;;;;17.15;11.68;;;17.80;99.90;;;;;;5034742;28;20067;-72
2023/06/24 05:20:26;;;;;;;16.83;11.18;;;17.80;99.90;;;;;;5034979;28;20125;-72
2023/06/24 05:22:51;;;;;;;14.25;12.10;;;17.90;99.90;;;;;;5034641;28;20037;-72
2023/06/24 05:25:17;;;;;;;13.85;11.70;;;18.00;99.90;;;;;;5034782;28;20191;-72
2023/06/24 05:27:44;;;;;;;16.42;11.85;;;18.00;99.90;;;;;;5034833;28;20539;-72
2023/06/24 05:30:10;;;;;;;13.27;11.90;;;18.10;99.90;;;;;;5034344;28;20045;-72
2023/06/24 05:32:36;;;;;;;13.73;11.63;;;18.10;99.90;;;;;;5034591;28;20041;-72
2023/06/24 05:35:01;;;;;;;14.50;12.75;;;18.20;99.90;;;;;;5034455;28;20095;-72
2023/06/24 05:37:27;;;;;;;13.18;11.77;;;18.30;99.90;;;;;;5034597;28;20541;-72
2023/06/24 05:39:53;;;;;;;15.68;12.13;;;18.40;99.90;;;;;;5034313;28;20502;-72
2023/06/24 05:42:19;;;;;;;14.88;11.60;;;18.40;99.90;;;;;;5034536;28;20033;-72
2023/06/24 05:44:44;;;;;;;15.48;12.15;;;18.50;99.90;;;;;;5034270;28;20452;-72
2023/06/24 05:47:10;;;;;;;16.35;12.20;;;18.60;99.90;;;;;;5034166;28;20054;-72
2023/06/24 05:49:36;;;;;;;12.98;11.68;;;18.70;99.90;;;;;;5034155;28;20048;-72
2023/06/24 05:52:02;;;;;;;14.05;12.52;;;18.70;99.90;;;;;;5034374;28;20041;-72
2023/06/24 05:54:27;;;;;;;15.23;12.48;;;18.80;99.90;;;;;;5034058;28;20418;-73
2023/06/24 05:56:53;;;;;;;15.07;12.55;;;18.90;99.90;;;;;;5033876;28;20045;-73
2023/06/24 05:59:18;;;;;;;16.25;12.50;;;18.90;99.90;;;;;;5033875;28;20045;-73
2023/06/24 06:01:44;;;;;;;16.58;11.82;;;19.00;99.90;;;;;;5033940;28;20037;-73
2023/06/24 06:04:10;;;;;;;14.05;12.55;;;19.00;99.90;;;;;;5034010;28;20124;-73
2023/06/24 06:06:35;;;;;;;15.77;12.45;;;19.10;99.90;;;;;;5033800;28;20033;-74
2023/06/24 06:09:01;;;;;;;18.40;12.40;;;19.20;99.90;;;;;;5033737;28;20040;-73
2023/06/24 06:11:27;;;;;;;14.65;12.18;;;19.20;99.90;;;;;;5033994;28;20064;-73
2023/06/24 06:13:53;;;;;;;14.23;12.60;;;19.40;99.90;;;;;;5033723;28;20489;-73
2023/06/24 06:16:19;;;;;;;12.60;11.32;;;19.40;99.90;;;;;;5033600;28;20172;-73
2023/06/24 06:18:44;;;;;;;15.70;12.23;;;19.50;99.90;;;;;;5033643;28;20048;-73
2023/06/24 06:21:10;;;;;;;13.50;11.40;;;19.60;99.90;;;;;;5033483;28;20048;-73
2023/06/24 06:23:36;;;;;;;14.95;11.63;;;19.70;99.90;;;;;;5033768;28;20095;-73
2023/06/24 06:26:02;;;;;;;13.95;11.48;;;19.80;99.90;;;;;;5033666;28;20124;-72
2023/06/24 06:28:27;;;;;;;13.43;10.32;;;19.90;99.90;;;;;;5033433;28;20129;-74
2023/06/24 06:30:53;;;;;;;13.48;10.52;;;20.00;99.90;;;;;;5033627;28;20125;-75
2023/06/24 06:33:18;;;;;;;11.60;10.27;;;20.10;99.90;;;;;;5033327;28;20410;-75
2023/06/24 06:35:44;;;;;;;11.77;10.02;;;20.20;99.90;;;;;;5033194;28;20045;-74
2023/06/24 06:38:10;;;;;;;13.38;10.10;;;20.30;99.90;;;;;;5033209;28;20041;-74
2023/06/24 06:40:35;;;;;;;14.27;10.65;;;20.40;99.60;;;;;;5033349;28;20045;-74
2023/06/24 06:43:01;;;;;;;12.75;10.60;;;20.50;99.80;;;;;;5032188;28;20105;-74
2023/06/24 06:45:27;;;;;;;11.88;10.57;;;20.60;99.50;;;;;;5032975;28;20064;-74
2023/06/24 06:47:52;;;;;;;10.95;9.82;;;20.70;99.00;;;;;;5033021;28;20033;-74
2023/06/24 06:50:18;;;;;;;12.85;10.70;;;20.70;98.80;;;;;;5033004;28;20044;-74
2023/06/24 06:52:43;;;;;;;11.88;10.38;;;20.90;98.90;;;;;;5033207;28;20104;-74
2023/06/24 06:55:09;;;;;;;12.68;10.90;;;21.00;99.10;;;;;;5032984;28;20048;-74
2023/06/24 06:57:35;;;;;;;14.45;10.93;;;21.10;98.70;;;;;;5033150;28;20453;-75
2023/06/24 07:00:01;;;;;;;16.95;11.48;;;21.10;98.20;;;;;;5032736;28;20111;-75
2023/06/24 07:02:26;;;;;;;12.90;10.57;;;21.20;98.10;;;;;;5032770;28;20043;-75
2023/06/24 07:04:52;;;;;;;12.57;11.27;;;21.30;98.00;;;;;;5032987;28;20042;-75
2023/06/24 07:07:18;;;;;;;16.35;11.05;;;21.50;97.90;;;;;;5016199;28;20041;-74
2023/06/24 07:09:43;;;;;;;13.82;11.40;;;21.60;97.80;;;;;;5032864;28;20037;-74
2023/06/24 07:12:09;;;;;;;13.73;11.25;;;21.70;97.20;;;;;;5032585;28;20391;-74
2023/06/24 07:14:35;;;;;;;13.95;11.45;;;21.80;96.70;;;;;;5032569;28;20049;-74
2023/06/24 07:17:00;;;;;;;15.23;11.45;;;21.90;96.80;;;;;;5032674;28;20053;-74
2023/06/24 07:19:26;;;;;;;15.23;12.18;;;22.00;96.70;;;;;;5032679;28;20452;-74
2023/06/24 07:21:52;;;;;;;14.18;12.60;;;22.10;96.20;;;;;;5032476;28;20459;-74
2023/06/24 07:24:17;;;;;;;14.00;11.23;;;22.30;95.50;;;;;;5032391;28;20041;-74
2023/06/24 07:26:43;;;;;;;13.30;10.40;;;22.50;95.10;;;;;;5033058;28;20045;-74
2023/06/24 07:29:09;;;;;;;18.50;11.52;;;22.70;94.90;;;;;;5032584;28;20401;-74
2023/06/24 07:31:35;;;;;;;13.82;11.25;;;22.90;94.20;;;;;;5015855;28;20515;-74
2023/06/24 07:34:01;;;;;;;11.25;10.07;;;23.00;94.20;;;;;;5032226;28;20069;-75
2023/06/24 07:36:27;;;;;;;11.27;8.82;;;23.00;93.70;;;;;;5032123;28;20096;-75
2023/06/24 07:38:52;;;;;;;14.18;8.70;;;23.00;92.70;;;;;;5032192;28;20041;-74
2023/06/24 07:41:18;;;;;;;10.65;9.30;;;23.00;91.90;;;;;;5032114;28;20049;-74
2023/06/24 07:43:43;;;;;;;9.13;7.68;;;23.00;91.30;;;;;;5032079;28;20127;-74
2023/06/24 07:46:09;;;;;;;8.98;7.13;;;23.10;91.60;;;;;;5032225;28;20048;-74
2023/06/24 07:48:35;;;;;;;8.10;6.53;;;23.20;91.20;;;;;;5032278;28;20416;-74
2023/06/24 07:51:00;;;;;;;7.38;6.07;;;23.30;90.40;;;;;;5032169;28;20049;-74
2023/06/24 07:53:26;;;;;;;7.68;5.80;;;23.40;88.60;;;;;;5032019;28;20498;-74
2023/06/24 07:55:52;;;;;;;7.90;6.22;;;23.50;87.40;;;;;;5031778;28;20041;-74
2023/06/24 07:58:19;;;;;;;10.88;5.75;;;23.60;86.80;;;;;;5015526;28;20045;-74
2023/06/24 08:00:45;;;;;;;7.35;5.05;;;23.70;86.40;;;;;;5031790;28;20038;-74
2023/06/24 08:03:12;;;;;;;6.07;5.10;;;23.90;86.30;;;;;;5031859;28;20092;-74
2023/06/24 08:05:39;;;;;;;9.43;5.05;;;24.00;84.40;;;;;;5032028;28;20077;-74
2023/06/24 08:08:05;;;;;;;5.70;4.60;;;24.10;81.60;;;;;;5015292;28;20045;-74
2023/06/24 08:10:31;;;;;;;7.45;4.28;;;24.20;82.50;;;;;;5031822;28;20045;-74
2023/06/24 08:12:56;;;;;;;6.35;3.67;;;24.30;80.80;;;;;;5032026;28;20099;-74
2023/06/24 08:15:22;;;;;;;6.28;4.30;;;24.50;79.20;;;;;;5031887;28;20402;-74
2023/06/24 08:17:52;;;;;;;10.05;5.00;;;24.60;79.40;;;;;;5031901;28;20041;-74
2023/06/24 08:20:18;;;;;;;8.82;5.50;;;24.70;79.00;;;;;;5031807;28;20045;-74
2023/06/24 08:22:43;;;;;;;8.65;5.22;;;24.70;76.80;;;;;;5031665;28;20037;-74
2023/06/24 08:25:09;;;;;;;7.93;5.43;;;24.70;77.20;;;;;;5031552;28;20037;-74
2023/06/24 08:27:34;;;;;;;6.20;4.60;;;24.70;76.60;;;;;;5031620;28;20040;-74
2023/06/24 08:30:00;;;;;;;7.15;5.20;;;24.70;76.50;;;;;;5031596;28;20037;-74
2023/06/24 08:32:26;;;;;;;9.80;4.40;;;24.90;75.30;;;;;;5031636;28;20064;-77
2023/06/24 08:34:52;;;;;;;7.20;4.00;;;25.00;73.90;;;;;;5031502;28;20088;-75
2023/06/24 08:37:17;;;;;;;6.40;3.58;;;25.10;74.10;;;;;;5031706;28;20077;-71
2023/06/24 08:39:43;;;;;;;4.65;3.40;;;25.20;72.20;;;;;;5031472;28;20232;-71
2023/06/24 08:42:08;;;;;;;5.57;3.83;;;25.20;70.10;;;;;;5031454;28;20041;-71
2023/06/24 08:44:34;;;;;;;7.50;4.20;;;25.20;69.90;;;;;;5031506;28;20038;-71
2023/06/24 08:47:00;;;;;;;6.35;3.60;;;25.20;69.40;;;;;;5031363;28;20037;-71
2023/06/24 08:49:30;;;;;;;6.97;3.53;;;25.20;69.30;;;;;;5031394;28;20097;-70
2023/06/24 08:52:02;;;;;;;5.90;3.72;;;25.40;70.10;;;;;;5031393;28;20107;-70
2023/06/24 08:54:29;;;;;;;7.50;3.35;;;25.70;68.40;;;;;;5031353;28;20450;-70
2023/06/24 08:56:55;;;;;;;5.55;2.90;;;25.80;67.00;;;;;;5031158;28;20095;-70
2023/06/24 08:59:21;;;;;;;5.13;3.30;;;26.00;67.10;;;;;;5031291;28;20033;-70
2023/06/24 09:01:47;;;;;;;3.92;2.65;;;26.10;66.20;;;;;;5031215;28;20084;-70
2023/06/24 09:04:13;;;;;;;4.28;2.28;;;26.10;65.50;;;;;;5032802;28;20033;-70
2023/06/24 09:06:38;;;;;;;5.95;3.00;;;26.10;64.10;;;;;;5033443;28;20042;-70
2023/06/24 09:09:04;;;;;;;4.72;2.28;;;26.00;63.30;;;;;;5034936;28;20049;-70
2023/06/24 09:11:32;;;;;;;4.15;2.45;;;26.00;63.10;;;;;;5034994;28;20560;-70
2023/06/24 09:14:00;;;;;;;4.47;2.40;;;26.00;63.40;;;;;;5034859;28;20049;-70
2023/06/24 09:16:27;;;;;;;5.90;3.10;;;26.10;63.40;;;;;;5034647;28;20410;-70
2023/06/24 09:18:53;;;;;;;4.43;2.95;;;26.10;63.40;;;;;;5034728;28;20095;-70
2023/06/24 09:21:30;;;;;;;3.85;2.60;;;26.20;62.60;;;;;;5034670;28;20046;-70
2023/06/24 09:23:57;;;;;;;5.65;2.60;;;26.30;61.80;;;;;;5034771;28;20048;-70
2023/06/24 09:26:24;;;;;;;5.00;2.72;;;26.50;61.60;;;;;;5034524;28;20041;-70
2023/06/24 09:28:50;;;;;;;5.72;2.35;;;26.60;62.10;;;;;;5034611;28;20052;-70
2023/06/24 09:31:17;;;;;;;4.88;2.40;;;26.80;61.20;;;;;;5034787;28;20045;-70
2023/06/24 09:33:43;;;;;;;3.70;2.60;;;26.90;60.20;;;;;;5034489;28;20049;-70
2023/06/24 09:36:14;;;;;;;3.75;2.70;;;27.00;60.50;;;;;;5034642;28;20054;-70
2023/06/24 09:38:44;;;;;;;4.57;2.30;;;27.10;60.60;;;;;;5034653;28;20056;-70
2023/06/24 09:41:10;;;;;;;4.00;2.65;;;27.20;60.40;;;;;;5036164;28;20398;-70
2023/06/24 09:43:37;;;;;;;6.50;2.90;;;27.30;60.50;;;;;;5034312;28;20044;-70
2023/06/24 09:46:04;;;;;;;5.80;2.85;;;27.50;60.10;;;;;;5034204;28;20045;-70
2023/06/24 09:48:30;;;;;;;5.97;2.88;;;27.50;58.90;;;;;;5034190;28;20041;-70
2023/06/24 09:51:05;;;;;;;3.28;2.25;;;27.40;60.40;;;;;;5035395;28;20043;-70
2023/06/24 09:53:32;;;;;;;3.72;2.28;;;27.50;57.20;;;;;;5034224;28;20515;-70
2023/06/24 09:56:03;;;;;;;4.22;2.38;;;27.60;60.40;;;;;;5033874;28;20053;-70
2023/06/24 09:58:36;;;;;;;3.83;2.50;;;27.80;60.70;;;;;;5034023;28;20478;-70
2023/06/24 10:01:04;;;;;;;3.90;2.50;;;28.00;60.00;;;;;;5034732;28;20041;-70
2023/06/24 10:03:34;;;;;;;5.35;2.50;;;28.10;60.00;;;;;;5033922;28;20049;-69
2023/06/24 10:06:01;;;;;;;3.53;2.75;;;28.10;58.60;;;;;;5033844;28;20063;-69
2023/06/24 10:08:28;;;;;;;5.00;2.65;;;28.20;58.10;;;;;;5033910;28;20103;-69
2023/06/24 10:10:54;;;;;;;4.57;2.78;;;28.30;58.20;;;;;;5033804;28;20045;-68
2023/06/24 10:13:20;;;;;;;5.57;2.80;;;28.40;57.40;;;;;;5034939;28;20037;-70
2023/06/24 10:15:46;;;;;;;6.82;2.90;;;28.40;57.20;;;;;;5033577;28;20049;-70
2023/06/24 10:18:30;;;;;;;5.07;2.80;;;28.50;58.40;;;;;;5035044;28;20037;-70
2023/06/24 10:20:56;;;;;;;4.88;3.13;;;28.60;57.50;;;;;;5033643;28;20207;-69
2023/06/24 10:23:21;;;;;;;5.45;2.88;;;28.70;57.20;;;;;;5034813;28;20148;-69
2023/06/24 10:25:48;;;;;;;3.78;2.63;;;28.80;56.20;;;;;;5033414;28;20045;-69
2023/06/24 10:28:14;;;;;;;5.20;3.85;;;28.90;56.20;;;;;;5033486;28;20112;-69
2023/06/24 10:30:39;;;;;;;4.72;3.35;;;28.90;55.60;;;;;;5033395;28;20154;-69
2023/06/24 10:33:10;;;;;;;4.32;3.05;;;29.00;56.30;;;;;;5033589;28;20041;-69
2023/06/24 10:35:42;;;;;;;5.97;3.58;;;29.10;54.40;;;;;;5033560;28;20120;-72
2023/06/24 10:38:10;;;;;;;4.03;2.78;;;29.20;55.10;;;;;;5033549;28;20601;-73
2023/06/24 10:40:38;;;;;;;5.35;2.90;;;29.30;54.30;;;;;;5033109;28;20041;-73
2023/06/24 10:43:23;;;;;;;3.88;2.88;;;29.50;55.30;;;;;;5033128;28;20041;-73
2023/06/24 10:45:50;;;;;;;4.85;3.15;;;29.70;54.70;;;;;;5033094;28;20117;-73
2023/06/24 10:48:19;;;;;;;4.82;3.10;;;29.60;54.60;;;;;;5033073;28;20049;-73
2023/06/24 10:50:45;;;;;;;9.00;2.78;;;29.60;55.10;;;;;;5032945;28;20505;-73
2023/06/24 10:53:12;;;;;;;6.65;3.55;;;29.50;55.50;;;;;;5033255;28;20550;-73
2023/06/24 10:55:39;;;;;;;3.83;2.80;;;29.60;54.90;;;;;;5032971;28;20056;-73
2023/06/24 10:58:09;;;;;;;5.15;2.92;;;29.70;55.10;;;;;;5032856;28;20041;-73
2023/06/24 11:00:35;;;;;;;20.95;3.03;;;29.90;54.50;;;;;;5032892;28;20110;-73
2023/06/24 11:03:11;;;;;;;5.60;2.90;;;30.00;54.00;;;;;;5016620;28;20486;-73
2023/06/24 11:05:41;;;;;;;4.60;2.85;;;30.20;54.20;;;;;;5032725;28;20041;-73
2023/06/24 11:08:10;;;;;;;4.53;3.00;;;30.10;54.10;;;;;;5032753;28;20034;-73
2023/06/24 11:10:47;;;;;;;4.20;2.67;;;30.20;53.80;;;;;;5032640;28;20042;-73
2023/06/24 11:13:13;;;;;;;4.00;2.63;;;30.30;52.60;;;;;;5016066;28;20041;-73
2023/06/24 11:15:42;;;;;;;6.63;3.05;;;30.10;53.60;;;;;;5032792;28;20128;-74
2023/06/24 11:18:11;;;;;;;4.28;2.90;;;29.90;53.20;;;;;;5032524;28;20045;-68
2023/06/24 11:20:40;;;;;;;4.22;2.85;;;29.60;53.80;;;;;;5032428;28;20045;-69
2023/06/24 11:23:10;;;;;;;6.90;2.90;;;29.20;54.20;;;;;;5032435;28;20073;-68
2023/06/24 11:25:40;;;;;;;8.18;3.22;;;28.90;55.20;;;;;;5015886;28;20087;-68
2023/06/24 11:28:17;;;;;;;4.53;3.20;;;28.80;56.40;;;;;;5032073;28;20087;-68
2023/06/24 11:30:42;;;;;;;5.57;3.30;;;28.70;56.70;;;;;;5032598;28;20053;-68
2023/06/24 11:33:08;;;;;;;4.10;2.92;;;28.50;55.80;;;;;;5032347;28;20046;-68
2023/06/24 11:35:36;;;;;;;5.05;3.10;;;28.40;56.20;;;;;;5033731;28;20041;-68
2023/06/24 11:38:01;;;;;;;4.82;3.13;;;28.50;56.10;;;;;;5033507;28;20048;-68
2023/06/24 11:40:27;;;;;;;5.32;2.85;;;28.90;56.20;;;;;;5033319;28;20120;-68
2023/06/24 11:42:53;;;;;;;6.65;3.13;;;29.10;56.80;;;;;;5032119;28;20456;-68
2023/06/24 11:45:22;;;;;;;4.82;3.10;;;29.30;56.50;;;;;;5032016;28;20048;-68
2023/06/24 11:47:52;;;;;;;6.32;2.78;;;29.60;56.10;;;;;;5032089;28;20121;-68
2023/06/24 11:50:17;;;;;;;6.85;3.05;;;30.00;55.90;;;;;;5032243;28;20441;-68
2023/06/24 11:52:52;;;;;;;5.10;3.22;;;30.20;54.30;;;;;;5032180;28;20524;-68
2023/06/24 11:55:23;;;;;;;3.55;2.60;;;30.00;54.30;;;;;;5033406;28;20041;-68
2023/06/24 11:57:55;;;;;;;6.80;3.15;;;29.90;55.00;;;;;;5032039;28;20095;-68
2023/06/24 12:00:25;;;;;;;5.90;3.13;;;29.70;55.10;;;;;;5031983;28;20050;-68
2023/06/24 12:02:54;;;;;;;5.32;3.30;;;29.50;55.70;;;;;;5031858;28;20041;-68
2023/06/24 12:05:28;;;;;;;12.13;3.20;;;29.30;55.70;;;;;;5031726;28;20524;-68
2023/06/24 12:07:56;;;;;;;5.97;3.05;;;29.50;56.10;;;;;;5031885;28;20042;-72
2023/06/24 12:10:21;;;;;;;5.65;3.03;;;30.00;55.90;;;;;;5031807;28;20068;-73
2023/06/24 12:12:47;;;;;;;6.53;3.45;;;30.30;55.20;;;;;;5031768;28;20042;-73
2023/06/24 12:15:13;;;;;;;4.57;3.33;;;30.30;54.90;;;;;;5031733;28;20041;-73
2023/06/24 12:17:38;;;;;;;5.28;3.15;;;30.20;54.20;;;;;;5032043;28;20068;-72
2023/06/24 12:20:05;;;;;;;5.05;3.33;;;30.40;54.30;;;;;;5031562;28;20510;-73
2023/06/24 12:22:30;;;;;;;4.30;2.97;;;30.70;53.60;;;;;;5015271;28;20029;-73
2023/06/24 12:24:56;;;;;;;5.80;3.30;;;30.90;53.40;;;;;;5015155;28;20033;-73
2023/06/24 12:27:21;;;;;;;7.85;3.20;;;31.00;53.00;;;;;;5031604;28;20034;-72
2023/06/24 12:29:47;;;;;;;6.88;3.20;;;31.20;53.00;;;;;;5031631;28;20397;-72
2023/06/24 12:32:12;;;;;;;4.53;2.90;;;31.30;53.10;;;;;;5031607;28;20037;-72
2023/06/24 12:34:38;;;;;;;5.43;3.30;;;31.50;52.80;;;;;;5031873;28;20045;-73
2023/06/24 12:37:04;;;;;;;5.03;2.90;;;31.40;51.50;;;;;;5031474;28;20033;-68
2023/06/24 12:39:29;;;;;;;4.82;3.10;;;31.30;51.70;;;;;;5031610;28;20095;-68